sensor_id;sensor_type;location;lat;lon;timestamp;P1;durP1;ratioP1;P2;durP2;ratioP2
34072;SDS011;20346;52.702;16.886;2023-01-01T00:02:02;5.08;;;3.80;;
34072;SDS011;20346;52.702;16.886;2023-01-01T00:04:29;8.18;;;4.03;;
34072;SDS011;20346;52.702;16.886;2023-01-01T00:06:56;7.03;;;3.70;;
34072;SDS011;20346;52.702;16.886;2023-01-01T00:09:23;3.83;;;3.30;;
34072;SDS011;20346;52.702;16.886;2023-01-01T00:12:08;6.10;;;3.80;;
34072;SDS011;20346;52.702;16.886;2023-01-01T00:14:36;5.33;;;4.35;;
34072;SDS011;20346;52.702;16.886;2023-01-01T00:17:19;5.85;;;3.80;;
34072;SDS011;20346;52.702;16.886;2023-01-01T00:19:46;6.25;;;3.85;;
34072;SDS011;20346;52.702;16.886;2023-01-01T00:22:12;5.83;;;3.80;;
34072;SDS011;20346;52.702;16.886;2023-01-01T00:24:58;6.97;;;4.10;;
34072;SDS011;20346;52.702;16.886;2023-01-01T00:27:24;5.62;;;3.95;;
34072;SDS011;20346;52.702;16.886;2023-01-01T00:29:59;4.30;;;3.90;;
34072;SDS011;20346;52.702;16.886;2023-01-01T00:32:46;7.75;;;4.10;;
34072;SDS011;20346;52.702;16.886;2023-01-01T00:35:41;4.58;;;3.50;;
34072;SDS011;20346;52.702;16.886;2023-01-01T00:38:39;6.10;;;3.85;;
34072;SDS011;20346;52.702;16.886;2023-01-01T00:41:08;5.20;;;4.08;;
34072;SDS011;20346;52.702;16.886;2023-01-01T00:43:35;3.98;;;3.58;;
34072;SDS011;20346;52.702;16.886;2023-01-01T00:46:03;4.08;;;3.47;;
34072;SDS011;20346;52.702;16.886;2023-01-01T00:48:31;4.25;;;3.67;;
34072;SDS011;20346;52.702;16.886;2023-01-01T00:50:57;5.90;;;4.10;;
34072;SDS011;20346;52.702;16.886;2023-01-01T00:53:24;4.53;;;3.33;;
34072;SDS011;20346;52.702;16.886;2023-01-01T00:55:51;4.90;;;3.37;;
34072;SDS011;20346;52.702;16.886;2023-01-01T00:58:19;4.35;;;3.47;;
34072;SDS011;20346;52.702;16.886;2023-01-01T01:00:47;4.50;;;3.45;;
34072;SDS011;20346;52.702;16.886;2023-01-01T01:03:14;5.97;;;3.60;;
34072;SDS011;20346;52.702;16.886;2023-01-01T01:06:06;3.92;;;3.33;;
34072;SDS011;20346;52.702;16.886;2023-01-01T01:08:33;3.58;;;2.80;;
34072;SDS011;20346;52.702;16.886;2023-01-01T01:11:06;3.45;;;2.70;;
34072;SDS011;20346;52.702;16.886;2023-01-01T01:13:36;6.15;;;3.35;;
34072;SDS011;20346;52.702;16.886;2023-01-01T01:16:08;5.25;;;3.20;;
34072;SDS011;20346;52.702;16.886;2023-01-01T01:18:37;5.12;;;3.25;;
34072;SDS011;20346;52.702;16.886;2023-01-01T01:21:04;3.72;;;3.33;;
34072;SDS011;20346;52.702;16.886;2023-01-01T01:23:30;3.50;;;2.98;;
34072;SDS011;20346;52.702;16.886;2023-01-01T01:28:35;4.70;;;3.33;;
34072;SDS011;20346;52.702;16.886;2023-01-01T01:31:02;3.45;;;2.90;;
34072;SDS011;20346;52.702;16.886;2023-01-01T01:33:29;3.77;;;2.85;;
34072;SDS011;20346;52.702;16.886;2023-01-01T01:35:55;3.45;;;3.12;;
34072;SDS011;20346;52.702;16.886;2023-01-01T01:38:22;3.70;;;3.08;;
34072;SDS011;20346;52.702;16.886;2023-01-01T01:40:48;4.10;;;3.00;;
34072;SDS011;20346;52.702;16.886;2023-01-01T01:43:25;4.83;;;3.67;;
34072;SDS011;20346;52.702;16.886;2023-01-01T01:46:06;4.12;;;3.33;;
34072;SDS011;20346;52.702;16.886;2023-01-01T01:49:09;4.33;;;3.50;;
34072;SDS011;20346;52.702;16.886;2023-01-01T01:51:41;5.25;;;3.05;;
34072;SDS011;20346;52.702;16.886;2023-01-01T01:54:10;5.58;;;3.22;;
34072;SDS011;20346;52.702;16.886;2023-01-01T01:59:20;6.15;;;4.40;;
34072;SDS011;20346;52.702;16.886;2023-01-01T02:01:51;3.33;;;3.02;;
34072;SDS011;20346;52.702;16.886;2023-01-01T02:04:18;4.78;;;3.65;;
34072;SDS011;20346;52.702;16.886;2023-01-01T02:06:45;4.15;;;3.47;;
34072;SDS011;20346;52.702;16.886;2023-01-01T02:09:13;4.65;;;3.52;;
34072;SDS011;20346;52.702;16.886;2023-01-01T02:11:39;8.08;;;2.92;;
34072;SDS011;20346;52.702;16.886;2023-01-01T02:14:06;5.22;;;3.45;;
34072;SDS011;20346;52.702;16.886;2023-01-01T02:16:38;4.33;;;3.12;;
34072;SDS011;20346;52.702;16.886;2023-01-01T02:30:46;3.08;;;2.75;;
34072;SDS011;20346;52.702;16.886;2023-01-01T02:33:17;4.47;;;3.40;;
34072;SDS011;20346;52.702;16.886;2023-01-01T02:35:48;4.53;;;3.10;;
34072;SDS011;20346;52.702;16.886;2023-01-01T02:38:31;6.30;;;2.95;;
34072;SDS011;20346;52.702;16.886;2023-01-01T02:41:08;3.45;;;2.85;;
34072;SDS011;20346;52.702;16.886;2023-01-01T02:43:38;4.53;;;3.50;;
34072;SDS011;20346;52.702;16.886;2023-01-01T02:46:07;5.75;;;3.02;;
34072;SDS011;20346;52.702;16.886;2023-01-01T02:56:50;5.58;;;2.85;;
34072;SDS011;20346;52.702;16.886;2023-01-01T02:59:31;4.97;;;2.85;;
34072;SDS011;20346;52.702;16.886;2023-01-01T03:02:41;5.97;;;2.90;;
34072;SDS011;20346;52.702;16.886;2023-01-01T03:08:12;4.20;;;2.77;;
34072;SDS011;20346;52.702;16.886;2023-01-01T03:10:50;3.80;;;3.20;;
34072;SDS011;20346;52.702;16.886;2023-01-01T03:24:24;3.92;;;2.62;;
34072;SDS011;20346;52.702;16.886;2023-01-01T03:27:01;4.15;;;2.60;;
34072;SDS011;20346;52.702;16.886;2023-01-01T03:29:32;4.20;;;2.65;;
34072;SDS011;20346;52.702;16.886;2023-01-01T03:32:02;4.72;;;2.98;;
34072;SDS011;20346;52.702;16.886;2023-01-01T03:34:34;5.40;;;2.67;;
34072;SDS011;20346;52.702;16.886;2023-01-01T03:37:09;4.83;;;3.25;;
34072;SDS011;20346;52.702;16.886;2023-01-01T03:39:44;4.25;;;2.60;;
34072;SDS011;20346;52.702;16.886;2023-01-01T03:42:30;4.15;;;2.95;;
34072;SDS011;20346;52.702;16.886;2023-01-01T03:45:35;3.02;;;2.42;;
34072;SDS011;20346;52.702;16.886;2023-01-01T03:47:45;3.12;;;2.25;;
34072;SDS011;20346;52.702;16.886;2023-01-01T03:58:12;4.58;;;2.90;;
34072;SDS011;20346;52.702;16.886;2023-01-01T04:00:48;3.40;;;2.17;;
34072;SDS011;20346;52.702;16.886;2023-01-01T04:03:26;3.47;;;2.65;;
34072;SDS011;20346;52.702;16.886;2023-01-01T04:05:55;3.70;;;2.47;;
34072;SDS011;20346;52.702;16.886;2023-01-01T04:08:21;3.58;;;2.50;;
34072;SDS011;20346;52.702;16.886;2023-01-01T04:13:22;3.70;;;2.33;;
34072;SDS011;20346;52.702;16.886;2023-01-01T04:15:49;5.08;;;2.52;;
34072;SDS011;20346;52.702;16.886;2023-01-01T04:18:15;7.95;;;3.02;;
34072;SDS011;20346;52.702;16.886;2023-01-01T04:20:42;5.97;;;3.17;;
34072;SDS011;20346;52.702;16.886;2023-01-01T04:23:08;5.37;;;2.45;;
34072;SDS011;20346;52.702;16.886;2023-01-01T04:25:35;6.25;;;2.70;;
34072;SDS011;20346;52.702;16.886;2023-01-01T04:28:01;4.58;;;2.77;;
34072;SDS011;20346;52.702;16.886;2023-01-01T04:30:28;5.33;;;2.90;;
34072;SDS011;20346;52.702;16.886;2023-01-01T04:32:55;3.10;;;2.67;;
34072;SDS011;20346;52.702;16.886;2023-01-01T04:35:21;5.05;;;3.22;;
34072;SDS011;20346;52.702;16.886;2023-01-01T04:37:48;4.87;;;2.50;;
34072;SDS011;20346;52.702;16.886;2023-01-01T04:40:14;5.72;;;2.65;;
34072;SDS011;20346;52.702;16.886;2023-01-01T04:42:41;10.15;;;2.92;;
34072;SDS011;20346;52.702;16.886;2023-01-01T04:45:08;7.03;;;3.10;;
34072;SDS011;20346;52.702;16.886;2023-01-01T04:47:37;5.03;;;2.98;;
34072;SDS011;20346;52.702;16.886;2023-01-01T04:50:04;4.47;;;2.37;;
34072;SDS011;20346;52.702;16.886;2023-01-01T04:52:31;4.05;;;2.52;;
34072;SDS011;20346;52.702;16.886;2023-01-01T04:54:58;6.92;;;2.52;;
34072;SDS011;20346;52.702;16.886;2023-01-01T04:57:24;4.10;;;3.40;;
34072;SDS011;20346;52.702;16.886;2023-01-01T04:59:51;5.17;;;2.83;;
34072;SDS011;20346;52.702;16.886;2023-01-01T05:02:17;5.75;;;3.65;;
34072;SDS011;20346;52.702;16.886;2023-01-01T05:04:44;7.70;;;3.15;;
34072;SDS011;20346;52.702;16.886;2023-01-01T05:07:10;8.55;;;3.08;;
34072;SDS011;20346;52.702;16.886;2023-01-01T05:09:37;4.95;;;3.15;;
34072;SDS011;20346;52.702;16.886;2023-01-01T05:12:03;6.28;;;3.52;;
34072;SDS011;20346;52.702;16.886;2023-01-01T05:14:30;6.42;;;3.98;;
34072;SDS011;20346;52.702;16.886;2023-01-01T05:16:57;7.17;;;3.05;;
34072;SDS011;20346;52.702;16.886;2023-01-01T05:19:23;6.65;;;3.65;;
34072;SDS011;20346;52.702;16.886;2023-01-01T05:21:49;5.40;;;3.50;;
34072;SDS011;20346;52.702;16.886;2023-01-01T05:24:16;8.83;;;3.52;;
34072;SDS011;20346;52.702;16.886;2023-01-01T05:26:43;6.35;;;3.45;;
34072;SDS011;20346;52.702;16.886;2023-01-01T05:29:11;8.05;;;2.55;;
34072;SDS011;20346;52.702;16.886;2023-01-01T05:31:38;4.95;;;3.12;;
34072;SDS011;20346;52.702;16.886;2023-01-01T05:34:04;8.30;;;2.87;;
34072;SDS011;20346;52.702;16.886;2023-01-01T05:36:32;7.03;;;3.02;;
34072;SDS011;20346;52.702;16.886;2023-01-01T05:39:03;3.50;;;2.85;;
34072;SDS011;20346;52.702;16.886;2023-01-01T05:41:31;4.03;;;2.30;;
34072;SDS011;20346;52.702;16.886;2023-01-01T05:44:01;5.25;;;2.98;;
34072;SDS011;20346;52.702;16.886;2023-01-01T05:46:29;5.97;;;2.77;;
34072;SDS011;20346;52.702;16.886;2023-01-01T05:48:56;4.15;;;2.52;;
34072;SDS011;20346;52.702;16.886;2023-01-01T05:51:24;6.10;;;3.08;;
34072;SDS011;20346;52.702;16.886;2023-01-01T05:53:53;5.05;;;2.70;;
34072;SDS011;20346;52.702;16.886;2023-01-01T05:56:21;5.30;;;2.80;;
34072;SDS011;20346;52.702;16.886;2023-01-01T05:58:49;3.02;;;2.35;;
34072;SDS011;20346;52.702;16.886;2023-01-01T06:01:16;9.30;;;2.72;;
34072;SDS011;20346;52.702;16.886;2023-01-01T06:03:48;6.15;;;2.52;;
34072;SDS011;20346;52.702;16.886;2023-01-01T06:06:18;5.50;;;2.98;;
34072;SDS011;20346;52.702;16.886;2023-01-01T06:08:50;9.75;;;3.12;;
34072;SDS011;20346;52.702;16.886;2023-01-01T06:11:24;5.92;;;2.90;;
34072;SDS011;20346;52.702;16.886;2023-01-01T06:13:55;4.17;;;2.58;;
34072;SDS011;20346;52.702;16.886;2023-01-01T06:16:24;5.10;;;2.87;;
34072;SDS011;20346;52.702;16.886;2023-01-01T06:18:52;4.42;;;3.22;;
34072;SDS011;20346;52.702;16.886;2023-01-01T06:21:20;4.95;;;3.17;;
34072;SDS011;20346;52.702;16.886;2023-01-01T06:23:49;9.53;;;3.67;;
34072;SDS011;20346;52.702;16.886;2023-01-01T06:26:17;5.10;;;2.92;;
34072;SDS011;20346;52.702;16.886;2023-01-01T06:28:47;7.28;;;3.67;;
34072;SDS011;20346;52.702;16.886;2023-01-01T06:31:15;6.20;;;3.25;;
34072;SDS011;20346;52.702;16.886;2023-01-01T06:33:44;5.03;;;3.05;;
34072;SDS011;20346;52.702;16.886;2023-01-01T06:36:12;6.35;;;3.65;;
34072;SDS011;20346;52.702;16.886;2023-01-01T06:38:42;5.95;;;3.15;;
34072;SDS011;20346;52.702;16.886;2023-01-01T06:41:12;9.58;;;3.27;;
34072;SDS011;20346;52.702;16.886;2023-01-01T06:43:41;6.40;;;3.47;;
34072;SDS011;20346;52.702;16.886;2023-01-01T06:48:43;5.87;;;3.25;;
34072;SDS011;20346;52.702;16.886;2023-01-01T06:51:15;9.53;;;3.70;;
34072;SDS011;20346;52.702;16.886;2023-01-01T06:53:46;5.65;;;3.45;;
34072;SDS011;20346;52.702;16.886;2023-01-01T06:56:13;6.67;;;3.75;;
34072;SDS011;20346;52.702;16.886;2023-01-01T07:01:08;6.40;;;3.02;;
34072;SDS011;20346;52.702;16.886;2023-01-01T07:03:37;9.78;;;3.70;;
34072;SDS011;20346;52.702;16.886;2023-01-01T07:06:05;8.68;;;4.00;;
34072;SDS011;20346;52.702;16.886;2023-01-01T07:08:33;6.40;;;4.03;;
34072;SDS011;20346;52.702;16.886;2023-01-01T07:11:00;7.28;;;3.77;;
34072;SDS011;20346;52.702;16.886;2023-01-01T07:13:27;11.22;;;4.53;;
34072;SDS011;20346;52.702;16.886;2023-01-01T07:15:55;5.20;;;3.75;;
34072;SDS011;20346;52.702;16.886;2023-01-01T07:18:22;8.20;;;3.58;;
34072;SDS011;20346;52.702;16.886;2023-01-01T07:20:51;10.25;;;4.37;;
34072;SDS011;20346;52.702;16.886;2023-01-01T07:23:20;4.65;;;3.70;;
34072;SDS011;20346;52.702;16.886;2023-01-01T07:25:49;8.03;;;3.72;;
34072;SDS011;20346;52.702;16.886;2023-01-01T07:28:18;5.72;;;3.67;;
34072;SDS011;20346;52.702;16.886;2023-01-01T07:30:45;6.33;;;3.72;;
34072;SDS011;20346;52.702;16.886;2023-01-01T07:33:14;4.40;;;3.55;;
34072;SDS011;20346;52.702;16.886;2023-01-01T07:35:44;9.23;;;4.55;;
34072;SDS011;20346;52.702;16.886;2023-01-01T07:40:38;8.30;;;3.67;;
34072;SDS011;20346;52.702;16.886;2023-01-01T07:45:31;9.43;;;4.08;;
34072;SDS011;20346;52.702;16.886;2023-01-01T07:47:59;6.28;;;3.30;;
34072;SDS011;20346;52.702;16.886;2023-01-01T07:50:28;5.67;;;4.17;;
34072;SDS011;20346;52.702;16.886;2023-01-01T07:52:56;4.00;;;3.40;;
34072;SDS011;20346;52.702;16.886;2023-01-01T07:55:23;6.35;;;3.92;;
34072;SDS011;20346;52.702;16.886;2023-01-01T07:57:50;8.35;;;3.75;;
34072;SDS011;20346;52.702;16.886;2023-01-01T08:00:17;7.55;;;3.87;;
34072;SDS011;20346;52.702;16.886;2023-01-01T08:02:46;5.90;;;3.50;;
34072;SDS011;20346;52.702;16.886;2023-01-01T08:05:13;9.03;;;3.77;;
34072;SDS011;20346;52.702;16.886;2023-01-01T08:07:41;9.45;;;3.42;;
34072;SDS011;20346;52.702;16.886;2023-01-01T08:10:15;6.78;;;3.02;;
34072;SDS011;20346;52.702;16.886;2023-01-01T08:12:47;6.55;;;3.25;;
34072;SDS011;20346;52.702;16.886;2023-01-01T08:15:14;10.03;;;3.33;;
34072;SDS011;20346;52.702;16.886;2023-01-01T08:17:41;6.15;;;3.72;;
34072;SDS011;20346;52.702;16.886;2023-01-01T08:20:08;7.67;;;3.37;;
34072;SDS011;20346;52.702;16.886;2023-01-01T08:22:35;6.42;;;2.95;;
34072;SDS011;20346;52.702;16.886;2023-01-01T08:25:01;11.28;;;3.27;;
34072;SDS011;20346;52.702;16.886;2023-01-01T08:27:28;4.60;;;3.08;;
34072;SDS011;20346;52.702;16.886;2023-01-01T08:29:55;11.40;;;3.42;;
34072;SDS011;20346;52.702;16.886;2023-01-01T08:32:21;5.42;;;2.98;;
34072;SDS011;20346;52.702;16.886;2023-01-01T08:34:48;4.65;;;3.30;;
34072;SDS011;20346;52.702;16.886;2023-01-01T08:37:14;5.70;;;3.20;;
34072;SDS011;20346;52.702;16.886;2023-01-01T08:39:41;4.65;;;3.12;;
34072;SDS011;20346;52.702;16.886;2023-01-01T08:42:07;7.87;;;3.40;;
34072;SDS011;20346;52.702;16.886;2023-01-01T08:44:33;6.20;;;3.30;;
34072;SDS011;20346;52.702;16.886;2023-01-01T08:47:00;6.47;;;3.27;;
34072;SDS011;20346;52.702;16.886;2023-01-01T08:49:26;5.60;;;3.25;;
34072;SDS011;20346;52.702;16.886;2023-01-01T08:51:53;8.43;;;3.17;;
34072;SDS011;20346;52.702;16.886;2023-01-01T08:54:19;7.35;;;3.37;;
34072;SDS011;20346;52.702;16.886;2023-01-01T08:56:46;6.42;;;3.37;;
34072;SDS011;20346;52.702;16.886;2023-01-01T08:59:12;5.87;;;2.87;;
34072;SDS011;20346;52.702;16.886;2023-01-01T09:01:39;6.65;;;3.00;;
34072;SDS011;20346;52.702;16.886;2023-01-01T09:04:05;7.83;;;3.15;;
34072;SDS011;20346;52.702;16.886;2023-01-01T09:06:34;9.90;;;3.85;;
34072;SDS011;20346;52.702;16.886;2023-01-01T09:09:00;8.65;;;3.30;;
34072;SDS011;20346;52.702;16.886;2023-01-01T09:11:27;7.25;;;3.35;;
34072;SDS011;20346;52.702;16.886;2023-01-01T09:13:53;5.62;;;2.87;;
34072;SDS011;20346;52.702;16.886;2023-01-01T09:16:20;5.70;;;3.10;;
34072;SDS011;20346;52.702;16.886;2023-01-01T09:18:47;5.47;;;2.65;;
34072;SDS011;20346;52.702;16.886;2023-01-01T09:21:14;6.65;;;2.85;;
34072;SDS011;20346;52.702;16.886;2023-01-01T09:23:41;3.87;;;2.65;;
34072;SDS011;20346;52.702;16.886;2023-01-01T09:26:08;6.08;;;3.22;;
34072;SDS011;20346;52.702;16.886;2023-01-01T09:28:35;6.47;;;2.87;;
34072;SDS011;20346;52.702;16.886;2023-01-01T09:31:03;4.25;;;2.33;;
34072;SDS011;20346;52.702;16.886;2023-01-01T09:33:33;4.85;;;2.67;;
34072;SDS011;20346;52.702;16.886;2023-01-01T09:36:43;7.17;;;2.20;;
34072;SDS011;20346;52.702;16.886;2023-01-01T09:38:52;5.22;;;2.50;;
34072;SDS011;20346;52.702;16.886;2023-01-01T09:47:04;6.25;;;2.33;;
34072;SDS011;20346;52.702;16.886;2023-01-01T09:49:40;4.90;;;3.15;;
34072;SDS011;20346;52.702;16.886;2023-01-01T09:52:10;9.68;;;2.87;;
34072;SDS011;20346;52.702;16.886;2023-01-01T09:54:39;7.10;;;2.70;;
34072;SDS011;20346;52.702;16.886;2023-01-01T09:57:16;6.60;;;3.00;;
34072;SDS011;20346;52.702;16.886;2023-01-01T09:59:43;6.15;;;3.62;;
34072;SDS011;20346;52.702;16.886;2023-01-01T10:07:41;5.70;;;2.77;;
34072;SDS011;20346;52.702;16.886;2023-01-01T10:18:41;3.85;;;2.60;;
34072;SDS011;20346;52.702;16.886;2023-01-01T10:21:20;5.85;;;2.85;;
34072;SDS011;20346;52.702;16.886;2023-01-01T10:24:03;4.65;;;2.62;;
34072;SDS011;20346;52.702;16.886;2023-01-01T10:27:11;5.72;;;2.90;;
34072;SDS011;20346;52.702;16.886;2023-01-01T10:29:41;4.65;;;2.75;;
34072;SDS011;20346;52.702;16.886;2023-01-01T10:32:16;4.28;;;2.35;;
34072;SDS011;20346;52.702;16.886;2023-01-01T10:34:45;6.97;;;2.70;;
34072;SDS011;20346;52.702;16.886;2023-01-01T10:37:13;8.88;;;3.40;;
34072;SDS011;20346;52.702;16.886;2023-01-01T10:42:08;4.28;;;2.17;;
34072;SDS011;20346;52.702;16.886;2023-01-01T10:44:37;5.62;;;2.61;;
34072;SDS011;20346;52.702;16.886;2023-01-01T10:49:57;4.58;;;2.30;;
34072;SDS011;20346;52.702;16.886;2023-01-01T10:52:34;6.45;;;3.12;;
34072;SDS011;20346;52.702;16.886;2023-01-01T10:55:19;5.95;;;2.37;;
34072;SDS011;20346;52.702;16.886;2023-01-01T10:57:48;6.58;;;3.15;;
34072;SDS011;20346;52.702;16.886;2023-01-01T11:00:22;3.87;;;2.83;;
34072;SDS011;20346;52.702;16.886;2023-01-01T11:03:09;4.20;;;2.70;;
34072;SDS011;20346;52.702;16.886;2023-01-01T11:08:45;4.40;;;2.72;;
34072;SDS011;20346;52.702;16.886;2023-01-01T11:11:22;4.97;;;2.35;;
34072;SDS011;20346;52.702;16.886;2023-01-01T11:14:20;6.42;;;3.02;;
34072;SDS011;20346;52.702;16.886;2023-01-01T11:16:52;11.78;;;2.83;;
34072;SDS011;20346;52.702;16.886;2023-01-01T11:19:23;4.35;;;2.65;;
34072;SDS011;20346;52.702;16.886;2023-01-01T11:21:59;9.65;;;3.00;;
34072;SDS011;20346;52.702;16.886;2023-01-01T11:24:26;5.10;;;2.92;;
34072;SDS011;20346;52.702;16.886;2023-01-01T11:27:12;5.28;;;3.42;;
34072;SDS011;20346;52.702;16.886;2023-01-01T11:29:45;4.42;;;2.83;;
34072;SDS011;20346;52.702;16.886;2023-01-01T11:32:18;6.60;;;2.98;;
34072;SDS011;20346;52.702;16.886;2023-01-01T11:34:55;6.62;;;3.00;;
34072;SDS011;20346;52.702;16.886;2023-01-01T11:37:34;3.75;;;2.67;;
34072;SDS011;20346;52.702;16.886;2023-01-01T11:40:02;5.58;;;3.00;;
34072;SDS011;20346;52.702;16.886;2023-01-01T11:42:34;9.90;;;3.35;;
34072;SDS011;20346;52.702;16.886;2023-01-01T11:45:03;4.58;;;2.87;;
34072;SDS011;20346;52.702;16.886;2023-01-01T11:47:55;5.72;;;3.10;;
34072;SDS011;20346;52.702;16.886;2023-01-01T11:53:17;4.60;;;3.20;;
34072;SDS011;20346;52.702;16.886;2023-01-01T11:55:59;3.33;;;2.67;;
34072;SDS011;20346;52.702;16.886;2023-01-01T11:59:12;4.95;;;3.30;;
34072;SDS011;20346;52.702;16.886;2023-01-01T12:06:39;5.55;;;2.85;;
34072;SDS011;20346;52.702;16.886;2023-01-01T12:09:44;6.17;;;2.75;;
34072;SDS011;20346;52.702;16.886;2023-01-01T12:12:36;8.20;;;3.25;;
34072;SDS011;20346;52.702;16.886;2023-01-01T12:15:20;5.22;;;3.02;;
34072;SDS011;20346;52.702;16.886;2023-01-01T12:23:24;6.08;;;3.67;;
34072;SDS011;20346;52.702;16.886;2023-01-01T12:28:36;4.15;;;2.65;;
34072;SDS011;20346;52.702;16.886;2023-01-01T12:37:19;4.25;;;3.67;;
34072;SDS011;20346;52.702;16.886;2023-01-01T12:43:00;9.98;;;3.58;;
34072;SDS011;20346;52.702;16.886;2023-01-01T13:00:17;5.90;;;3.25;;
34072;SDS011;20346;52.702;16.886;2023-01-01T13:02:51;5.28;;;3.52;;
34072;SDS011;20346;52.702;16.886;2023-01-01T13:05:21;6.00;;;3.22;;
34072;SDS011;20346;52.702;16.886;2023-01-01T13:07:55;5.75;;;3.30;;
34072;SDS011;20346;52.702;16.886;2023-01-01T13:12:59;6.90;;;3.80;;
34072;SDS011;20346;52.702;16.886;2023-01-01T13:42:39;4.90;;;2.92;;
34072;SDS011;20346;52.702;16.886;2023-01-01T13:45:26;5.95;;;3.70;;
34072;SDS011;20346;52.702;16.886;2023-01-01T13:57:14;5.30;;;3.57;;
34072;SDS011;20346;52.702;16.886;2023-01-01T14:02:58;5.47;;;4.45;;
34072;SDS011;20346;52.702;16.886;2023-01-01T14:05:29;7.67;;;4.08;;
34072;SDS011;20346;52.702;16.886;2023-01-01T14:10:56;6.62;;;4.10;;
34072;SDS011;20346;52.702;16.886;2023-01-01T14:13:25;7.72;;;4.42;;
34072;SDS011;20346;52.702;16.886;2023-01-01T14:16:05;5.80;;;4.17;;
34072;SDS011;20346;52.702;16.886;2023-01-01T14:18:49;9.03;;;4.17;;
34072;SDS011;20346;52.702;16.886;2023-01-01T14:21:23;9.10;;;4.03;;
34072;SDS011;20346;52.702;16.886;2023-01-01T14:24:06;4.78;;;3.52;;
34072;SDS011;20346;52.702;16.886;2023-01-01T14:26:32;4.73;;;3.73;;
34072;SDS011;20346;52.702;16.886;2023-01-01T14:29:05;4.62;;;3.33;;
34072;SDS011;20346;52.702;16.886;2023-01-01T14:31:34;6.00;;;3.75;;
34072;SDS011;20346;52.702;16.886;2023-01-01T14:34:13;7.45;;;4.10;;
34072;SDS011;20346;52.702;16.886;2023-01-01T14:36:53;6.67;;;3.40;;
34072;SDS011;20346;52.702;16.886;2023-01-01T14:39:21;7.78;;;3.42;;
34072;SDS011;20346;52.702;16.886;2023-01-01T14:41:51;8.88;;;3.90;;
34072;SDS011;20346;52.702;16.886;2023-01-01T14:44:23;5.75;;;3.58;;
34072;SDS011;20346;52.702;16.886;2023-01-01T14:46:54;4.22;;;3.22;;
34072;SDS011;20346;52.702;16.886;2023-01-01T14:49:23;7.10;;;3.45;;
34072;SDS011;20346;52.702;16.886;2023-01-01T14:51:56;5.15;;;3.47;;
34072;SDS011;20346;52.702;16.886;2023-01-01T14:54:30;5.62;;;3.33;;
34072;SDS011;20346;52.702;16.886;2023-01-01T14:56:57;5.83;;;3.40;;
34072;SDS011;20346;52.702;16.886;2023-01-01T14:59:26;4.45;;;3.27;;
34072;SDS011;20346;52.702;16.886;2023-01-01T15:04:30;8.53;;;4.03;;
34072;SDS011;20346;52.702;16.886;2023-01-01T15:06:58;9.30;;;3.85;;
34072;SDS011;20346;52.702;16.886;2023-01-01T15:09:26;6.20;;;3.77;;
34072;SDS011;20346;52.702;16.886;2023-01-01T15:11:55;7.90;;;3.87;;
34072;SDS011;20346;52.702;16.886;2023-01-01T15:14:44;9.95;;;4.47;;
34072;SDS011;20346;52.702;16.886;2023-01-01T15:17:05;5.10;;;3.80;;
34072;SDS011;20346;52.702;16.886;2023-01-01T15:19:37;8.45;;;3.58;;
34072;SDS011;20346;52.702;16.886;2023-01-01T15:22:25;6.78;;;4.03;;
34072;SDS011;20346;52.702;16.886;2023-01-01T15:25:00;4.22;;;3.70;;
34072;SDS011;20346;52.702;16.886;2023-01-01T15:27:32;9.58;;;3.67;;
34072;SDS011;20346;52.702;16.886;2023-01-01T15:30:00;5.80;;;3.87;;
34072;SDS011;20346;52.702;16.886;2023-01-01T15:32:31;7.03;;;4.20;;
34072;SDS011;20346;52.702;16.886;2023-01-01T15:35:01;6.40;;;3.92;;
34072;SDS011;20346;52.702;16.886;2023-01-01T15:37:51;6.65;;;3.75;;
34072;SDS011;20346;52.702;16.886;2023-01-01T15:45:26;5.25;;;3.80;;
34072;SDS011;20346;52.702;16.886;2023-01-01T15:55:59;8.28;;;4.40;;
34072;SDS011;20346;52.702;16.886;2023-01-01T15:58:31;7.65;;;3.92;;
34072;SDS011;20346;52.702;16.886;2023-01-01T16:01:11;4.90;;;3.85;;
34072;SDS011;20346;52.702;16.886;2023-01-01T16:03:40;5.70;;;4.10;;
34072;SDS011;20346;52.702;16.886;2023-01-01T16:06:13;6.08;;;4.03;;
34072;SDS011;20346;52.702;16.886;2023-01-01T16:08:41;7.62;;;4.30;;
34072;SDS011;20346;52.702;16.886;2023-01-01T16:11:08;7.50;;;3.87;;
34072;SDS011;20346;52.702;16.886;2023-01-01T16:13:35;6.35;;;4.17;;
34072;SDS011;20346;52.702;16.886;2023-01-01T16:16:02;8.50;;;4.35;;
34072;SDS011;20346;52.702;16.886;2023-01-01T16:18:30;6.28;;;4.42;;
34072;SDS011;20346;52.702;16.886;2023-01-01T16:21:00;6.00;;;4.50;;
34072;SDS011;20346;52.702;16.886;2023-01-01T16:23:28;7.87;;;4.58;;
34072;SDS011;20346;52.702;16.886;2023-01-01T16:25:54;11.40;;;5.47;;
34072;SDS011;20346;52.702;16.886;2023-01-01T16:28:22;14.25;;;6.30;;
34072;SDS011;20346;52.702;16.886;2023-01-01T16:30:48;13.90;;;6.17;;
34072;SDS011;20346;52.702;16.886;2023-01-01T16:33:16;13.58;;;7.53;;
34072;SDS011;20346;52.702;16.886;2023-01-01T16:35:45;14.30;;;8.23;;
34072;SDS011;20346;52.702;16.886;2023-01-01T16:38:13;14.25;;;8.93;;
34072;SDS011;20346;52.702;16.886;2023-01-01T16:40:39;15.45;;;8.70;;
34072;SDS011;20346;52.702;16.886;2023-01-01T16:43:07;16.90;;;8.33;;
34072;SDS011;20346;52.702;16.886;2023-01-01T16:45:41;14.78;;;8.95;;
34072;SDS011;20346;52.702;16.886;2023-01-01T16:48:09;12.33;;;7.87;;
34072;SDS011;20346;52.702;16.886;2023-01-01T16:50:35;12.90;;;8.15;;
34072;SDS011;20346;52.702;16.886;2023-01-01T16:53:02;18.07;;;8.78;;
34072;SDS011;20346;52.702;16.886;2023-01-01T16:55:28;14.58;;;9.33;;
34072;SDS011;20346;52.702;16.886;2023-01-01T16:57:55;15.63;;;9.35;;
34072;SDS011;20346;52.702;16.886;2023-01-01T17:00:21;19.87;;;10.23;;
34072;SDS011;20346;52.702;16.886;2023-01-01T17:02:48;22.15;;;11.45;;
34072;SDS011;20346;52.702;16.886;2023-01-01T17:05:14;18.60;;;10.80;;
34072;SDS011;20346;52.702;16.886;2023-01-01T17:07:41;21.62;;;11.97;;
34072;SDS011;20346;52.702;16.886;2023-01-01T17:10:08;21.50;;;12.18;;
34072;SDS011;20346;52.702;16.886;2023-01-01T17:12:34;22.65;;;12.15;;
34072;SDS011;20346;52.702;16.886;2023-01-01T17:15:01;26.37;;;13.10;;
34072;SDS011;20346;52.702;16.886;2023-01-01T17:17:27;27.87;;;13.45;;
34072;SDS011;20346;52.702;16.886;2023-01-01T17:19:53;23.77;;;12.40;;
34072;SDS011;20346;52.702;16.886;2023-01-01T17:22:20;26.40;;;13.18;;
34072;SDS011;20346;52.702;16.886;2023-01-01T17:24:46;28.30;;;13.32;;
34072;SDS011;20346;52.702;16.886;2023-01-01T17:27:13;25.88;;;13.15;;
34072;SDS011;20346;52.702;16.886;2023-01-01T17:29:39;19.85;;;11.75;;
34072;SDS011;20346;52.702;16.886;2023-01-01T17:32:06;21.77;;;12.23;;
34072;SDS011;20346;52.702;16.886;2023-01-01T17:34:33;23.62;;;12.00;;
34072;SDS011;20346;52.702;16.886;2023-01-01T17:39:26;23.67;;;11.68;;
34072;SDS011;20346;52.702;16.886;2023-01-01T17:41:52;26.35;;;11.93;;
34072;SDS011;20346;52.702;16.886;2023-01-01T17:44:19;20.68;;;11.20;;
34072;SDS011;20346;52.702;16.886;2023-01-01T17:46:45;22.30;;;11.78;;
34072;SDS011;20346;52.702;16.886;2023-01-01T17:49:12;22.10;;;11.45;;
34072;SDS011;20346;52.702;16.886;2023-01-01T17:51:38;20.55;;;11.53;;
34072;SDS011;20346;52.702;16.886;2023-01-01T17:54:05;19.82;;;10.85;;
34072;SDS011;20346;52.702;16.886;2023-01-01T17:56:33;19.98;;;11.22;;
34072;SDS011;20346;52.702;16.886;2023-01-01T17:58:59;19.52;;;10.60;;
34072;SDS011;20346;52.702;16.886;2023-01-01T18:01:27;25.25;;;11.83;;
34072;SDS011;20346;52.702;16.886;2023-01-01T18:04:00;17.75;;;10.90;;